Time;durP1;ratioP1;P1;durP2;ratioP2;P2;SDS_P1;SDS_P2;PMS_P1;PMS_P2;Temp;Humidity;BMP_temperature;BMP_pressure;BME280_temperature;BME280_humidity;BME280_pressure;Samples;Min_cycle;Max_cycle;Signal;HPM_P1;HPM_P2
2021/12/25 00:00:54;;;;;;;52.45;19.98;;;9.00;99.90;;;;;;4222551;28;20071;-80
2021/12/25 00:02:57;;;;;;;52.25;19.30;;;9.00;99.90;;;;;;4237836;28;20055;-78
2021/12/25 00:04:59;;;;;;;45.15;16.95;;;8.90;99.90;;;;;;4209500;28;20083;-78
2021/12/25 00:07:01;;;;;;;48.28;18.20;;;8.90;99.90;;;;;;4227315;28;20134;-79
2021/12/25 00:09:04;;;;;;;40.10;17.30;;;8.90;99.90;;;;;;4212958;28;20131;-79
2021/12/25 00:11:08;;;;;;;42.38;15.88;;;8.80;99.90;;;;;;4213030;28;20068;-76
2021/12/25 00:13:10;;;;;;;50.08;15.52;;;8.90;99.90;;;;;;4212435;28;20608;-79
2021/12/25 00:15:12;;;;;;;59.42;17.10;;;8.80;99.90;;;;;;4212918;28;20480;-80
2021/12/25 00:17:13;;;;;;;42.35;15.73;;;8.80;99.90;;;;;;4205193;28;20519;-77
2021/12/25 00:19:15;;;;;;;48.17;16.80;;;8.80;99.90;;;;;;4198136;28;20056;-78
2021/12/25 00:21:17;;;;;;;53.22;17.13;;;8.80;99.90;;;;;;4197934;28;20535;-79
2021/12/25 00:23:19;;;;;;;49.40;17.75;;;9.00;99.90;;;;;;4199693;28;20086;-78
2021/12/25 00:25:22;;;;;;;52.53;18.00;;;9.00;99.90;;;;;;4208635;28;20075;-80
2021/12/25 00:29:38;;;;;;;55.75;18.42;;;9.10;99.90;;;;;;4217481;28;20082;-78
2021/12/25 00:31:52;;;;;;;44.88;18.67;;;9.10;99.90;;;;;;4231655;28;20146;-78
2021/12/25 00:33:59;;;;;;;44.20;17.50;;;9.10;99.90;;;;;;4198442;28;20084;-78
2021/12/25 00:36:01;;;;;;;49.28;18.40;;;9.20;99.90;;;;;;4200289;28;20143;-79
2021/12/25 00:38:05;;;;;;;42.25;17.17;;;9.10;99.90;;;;;;4204927;28;20052;-79
2021/12/25 00:40:08;;;;;;;47.22;16.17;;;9.20;99.90;;;;;;4214766;28;20043;-79
2021/12/25 00:42:11;;;;;;;49.97;15.95;;;9.10;99.90;;;;;;4232804;28;20422;-78
2021/12/25 00:44:13;;;;;;;44.63;17.70;;;9.10;99.90;;;;;;4213356;28;20094;-79
2021/12/25 00:46:15;;;;;;;55.10;16.48;;;9.10;99.90;;;;;;4205498;28;20709;-79
2021/12/25 00:48:17;;;;;;;45.85;15.77;;;9.10;99.90;;;;;;4215048;28;20055;-78
2021/12/25 00:50:19;;;;;;;50.63;17.50;;;9.10;99.90;;;;;;4214762;28;20072;-79
2021/12/25 00:52:21;;;;;;;55.20;16.92;;;9.10;99.90;;;;;;4213130;28;20051;-80
2021/12/25 00:54:24;;;;;;;40.08;14.48;;;9.20;99.90;;;;;;4214828;28;20538;-78
2021/12/25 00:56:26;;;;;;;36.80;13.93;;;9.20;99.90;;;;;;4215209;28;20083;-78
2021/12/25 00:58:27;;;;;;;43.35;13.95;;;9.30;99.90;;;;;;4218637;28;20147;-83
2021/12/25 01:00:29;;;;;;;48.70;13.93;;;9.30;99.90;;;;;;4218585;28;20059;-79
2021/12/25 01:02:31;;;;;;;36.05;13.38;;;9.40;99.90;;;;;;4208106;28;20086;-77
2021/12/25 01:04:34;;;;;;;32.75;12.57;;;9.40;99.90;;;;;;4205273;28;20051;-79
2021/12/25 01:06:35;;;;;;;42.42;13.07;;;9.40;99.90;;;;;;4216237;28;20059;-78
2021/12/25 01:08:37;;;;;;;34.40;13.00;;;9.40;99.90;;;;;;4203314;28;20048;-79
2021/12/25 01:10:39;;;;;;;38.78;12.85;;;9.40;99.90;;;;;;4215587;28;20067;-79
2021/12/25 01:15:06;;;;;;;36.67;12.02;;;9.40;99.90;;;;;;4221370;28;20052;-78
2021/12/25 01:19:54;;;;;;;46.13;12.02;;;9.40;99.90;;;;;;4215578;28;20072;-79
2021/12/25 01:24:33;;;;;;;36.50;11.32;;;9.50;99.90;;;;;;4232140;28;20141;-78
2021/12/25 01:38:00;;;;;;;34.95;11.57;;;9.50;99.90;;;;;;4231446;28;20121;-79
2021/12/25 01:47:45;;;;;;;31.58;11.85;;;9.60;99.90;;;;;;4231148;28;20075;-81
2021/12/25 01:49:30;;;;;;;34.65;11.32;;;9.60;99.90;;;;;;4130535;28;20078;-79
2021/12/25 01:51:32;;;;;;;36.88;12.25;;;9.60;99.90;;;;;;4161631;28;20139;-79
2021/12/25 01:53:34;;;;;;;32.47;11.48;;;9.60;99.90;;;;;;4203117;28;20052;-79
2021/12/25 01:55:37;;;;;;;38.60;12.63;;;9.60;99.90;;;;;;4213699;28;20086;-81
2021/12/25 01:57:40;;;;;;;31.10;12.15;;;9.60;99.90;;;;;;4224671;28;20070;-77
2021/12/25 01:59:42;;;;;;;36.95;11.50;;;9.60;99.90;;;;;;4212243;28;20154;-79
2021/12/25 02:01:44;;;;;;;25.95;10.82;;;9.60;99.90;;;;;;4213937;28;20079;-79
2021/12/25 02:03:46;;;;;;;40.10;12.30;;;9.70;99.90;;;;;;4205343;28;20079;-79
2021/12/25 02:05:48;;;;;;;40.67;12.52;;;9.60;99.90;;;;;;4207011;28;20056;-79
2021/12/25 02:07:55;;;;;;;37.45;11.95;;;9.70;99.90;;;;;;4214012;28;20048;-79
2021/12/25 02:09:57;;;;;;;46.67;11.15;;;9.70;99.90;;;;;;4211366;28;20078;-78
2021/12/25 02:12:00;;;;;;;32.65;11.55;;;9.70;99.90;;;;;;4202130;28;20110;-79
2021/12/25 02:14:03;;;;;;;50.28;11.60;;;9.60;99.90;;;;;;4230616;28;20479;-81
2021/12/25 02:16:11;;;;;;;37.47;10.65;;;9.70;99.90;;;;;;4215394;28;20083;-78
2021/12/25 02:19:00;;;;;;;36.38;12.10;;;9.60;99.90;;;;;;4230361;27;20055;-80
2021/12/25 02:20:59;;;;;;;38.42;11.77;;;9.70;99.90;;;;;;4217022;28;20079;-79
2021/12/25 02:23:10;;;;;;;31.77;11.15;;;9.70;99.90;;;;;;4213420;28;20072;-80
2021/12/25 02:25:12;;;;;;;35.80;10.93;;;9.70;99.90;;;;;;4209831;28;20072;-81
2021/12/25 02:27:14;;;;;;;33.83;11.30;;;9.70;99.90;;;;;;4213010;28;20131;-79
2021/12/25 02:29:16;;;;;;;36.00;11.15;;;9.80;99.90;;;;;;4210577;28;20075;-80
2021/12/25 02:31:19;;;;;;;36.97;10.80;;;9.70;99.90;;;;;;4213154;28;20123;-80
2021/12/25 02:33:21;;;;;;;35.55;11.27;;;9.80;99.90;;;;;;4196424;28;20088;-76
2021/12/25 02:35:23;;;;;;;37.53;10.73;;;9.70;99.90;;;;;;4197865;28;20048;-78
2021/12/25 02:37:25;;;;;;;32.13;11.45;;;9.70;99.90;;;;;;4213364;28;20567;-79
2021/12/25 02:39:27;;;;;;;32.15;9.10;;;9.80;99.90;;;;;;4212232;28;20086;-78
2021/12/25 02:41:29;;;;;;;24.35;9.50;;;9.80;99.90;;;;;;4195556;28;20055;-79
2021/12/25 02:43:31;;;;;;;30.63;9.63;;;9.80;99.90;;;;;;4210741;28;20188;-78
2021/12/25 02:45:33;;;;;;;25.95;9.35;;;9.70;99.90;;;;;;4195821;28;20052;-78
2021/12/25 02:47:42;;;;;;;32.50;8.50;;;9.80;99.90;;;;;;4195852;28;20184;-78
2021/12/25 02:49:51;;;;;;;38.92;9.35;;;9.80;99.90;;;;;;4226202;28;20499;-79
2021/12/25 02:51:53;;;;;;;34.85;9.52;;;9.80;99.90;;;;;;4203977;28;20126;-80
2021/12/25 02:53:55;;;;;;;39.75;9.60;;;9.80;99.90;;;;;;4229431;28;20141;-79
2021/12/25 02:55:57;;;;;;;27.20;9.32;;;9.80;99.90;;;;;;4229728;28;20193;-78
2021/12/25 02:57:59;;;;;;;25.63;8.80;;;9.70;99.90;;;;;;4228370;28;20086;-80
2021/12/25 03:00:01;;;;;;;29.17;8.27;;;9.80;99.90;;;;;;4222615;28;20083;-77
2021/12/25 03:02:05;;;;;;;38.80;8.20;;;9.80;99.90;;;;;;4212973;28;20044;-80
2021/12/25 03:04:07;;;;;;;24.98;7.85;;;9.80;99.90;;;;;;4214935;28;20044;-79
2021/12/25 03:06:11;;;;;;;23.85;7.30;;;9.80;99.90;;;;;;4221489;28;20052;-78
2021/12/25 03:08:15;;;;;;;23.48;7.43;;;9.80;99.90;;;;;;4224631;28;20071;-80
2021/12/25 03:10:18;;;;;;;27.95;8.25;;;9.80;99.90;;;;;;4230144;28;20474;-79
2021/12/25 03:12:31;;;;;;;27.38;7.35;;;9.80;99.90;;;;;;4228433;28;20078;-80
2021/12/25 03:14:39;;;;;;;30.45;8.00;;;9.80;99.90;;;;;;4229769;28;20071;-80
2021/12/25 03:16:41;;;;;;;36.03;8.23;;;9.70;99.90;;;;;;4228044;28;20083;-79
2021/12/25 03:18:48;;;;;;;29.48;8.52;;;9.80;99.90;;;;;;4212712;28;20044;-79
2021/12/25 03:20:58;;;;;;;25.17;8.73;;;9.70;99.90;;;;;;4213941;28;20546;-80
2021/12/25 03:23:00;;;;;;;35.80;9.35;;;9.80;99.90;;;;;;4212794;28;20529;-79
2021/12/25 03:25:09;;;;;;;29.38;9.07;;;9.80;99.90;;;;;;4221506;28;20503;-79
2021/12/25 03:27:11;;;;;;;29.45;9.50;;;9.80;99.90;;;;;;4229115;28;20040;-80
2021/12/25 03:29:13;;;;;;;26.50;9.63;;;9.80;99.90;;;;;;4229459;28;20074;-79
2021/12/25 03:31:17;;;;;;;35.38;9.27;;;9.70;99.90;;;;;;4226543;28;20435;-78
2021/12/25 03:33:20;;;;;;;25.00;9.63;;;9.80;99.90;;;;;;4229564;28;20063;-79
2021/12/25 03:35:22;;;;;;;24.50;9.43;;;9.80;99.90;;;;;;4220850;28;20112;-78
2021/12/25 03:37:24;;;;;;;34.65;9.30;;;9.80;99.90;;;;;;4215783;28;20059;-79
2021/12/25 03:39:26;;;;;;;31.20;9.15;;;9.80;99.90;;;;;;4212704;28;20131;-78
2021/12/25 03:41:28;;;;;;;31.02;8.20;;;9.80;99.90;;;;;;4219743;28;20135;-80
2021/12/25 03:43:30;;;;;;;25.98;8.25;;;9.80;99.90;;;;;;4216310;28;20101;-78
2021/12/25 03:45:33;;;;;;;26.95;8.10;;;9.80;99.90;;;;;;4212652;28;20040;-80
2021/12/25 03:47:38;;;;;;;25.77;8.57;;;9.80;99.90;;;;;;4212779;28;20483;-79
2021/12/25 03:59:03;;;;;;;23.33;7.35;;;9.80;99.90;;;;;;4221808;28;20079;-79
2021/12/25 04:03:50;;;;;;;30.75;7.57;;;9.80;99.90;;;;;;4216513;28;20070;-78
2021/12/25 04:05:51;;;;;;;25.60;7.03;;;9.80;99.90;;;;;;4225494;28;20083;-77
2021/12/25 04:08:06;;;;;;;22.45;7.78;;;9.80;99.90;;;;;;4214761;28;20110;-79
2021/12/25 04:10:08;;;;;;;23.63;7.75;;;9.80;99.90;;;;;;4224751;28;20067;-78
2021/12/25 04:12:12;;;;;;;31.00;8.05;;;9.80;99.90;;;;;;4232171;28;20051;-80
2021/12/25 04:14:14;;;;;;;23.25;8.20;;;9.90;99.90;;;;;;4215269;28;20137;-78
2021/12/25 04:16:16;;;;;;;27.55;8.55;;;9.90;99.90;;;;;;4215015;28;20076;-78
2021/12/25 04:18:20;;;;;;;25.92;8.23;;;9.90;99.90;;;;;;4221333;28;20490;-80
2021/12/25 04:20:22;;;;;;;33.95;9.40;;;9.80;99.90;;;;;;4215159;28;20048;-78
2021/12/25 04:22:33;;;;;;;30.05;9.27;;;9.90;99.90;;;;;;4215064;28;20051;-79
2021/12/25 04:24:39;;;;;;;23.67;8.25;;;9.90;99.90;;;;;;4214949;28;20071;-79
2021/12/25 04:26:43;;;;;;;22.05;8.25;;;9.90;99.90;;;;;;4216013;28;20478;-80
2021/12/25 04:28:59;;;;;;;30.65;8.48;;;9.90;99.90;;;;;;4227784;28;20075;-79
2021/12/25 05:03:54;;;;;;;29.65;9.32;;;9.90;99.90;;;;;;4221784;28;20715;-78
2021/12/25 05:05:56;;;;;;;30.17;9.48;;;9.90;99.90;;;;;;4225647;28;20055;-78
2021/12/25 05:07:58;;;;;;;38.00;10.68;;;9.90;99.90;;;;;;4217169;28;20115;-79
2021/12/25 05:10:00;;;;;;;28.83;9.55;;;9.90;99.90;;;;;;4215159;28;20045;-78
2021/12/25 05:12:02;;;;;;;28.67;9.85;;;9.90;99.90;;;;;;4222490;28;20453;-79
2021/12/25 05:14:04;;;;;;;31.75;9.32;;;9.90;99.90;;;;;;4223631;28;20562;-81
2021/12/25 05:16:06;;;;;;;25.63;9.07;;;9.90;99.90;;;;;;4217305;28;20400;-78
2021/12/25 05:18:08;;;;;;;30.45;8.75;;;9.90;99.90;;;;;;4217881;28;20554;-79
2021/12/25 05:20:10;;;;;;;25.63;8.65;;;9.90;99.90;;;;;;4228936;28;20580;-79
2021/12/25 05:22:15;;;;;;;33.25;9.88;;;9.90;99.90;;;;;;4213479;28;20419;-79
2021/12/25 05:24:17;;;;;;;28.50;9.13;;;9.90;99.90;;;;;;4213642;28;20478;-78
2021/12/25 05:26:19;;;;;;;26.90;8.95;;;9.90;99.90;;;;;;4228868;28;20079;-79
2021/12/25 05:28:26;;;;;;;28.25;9.18;;;9.90;99.90;;;;;;4231119;28;20772;-80
2021/12/25 05:30:29;;;;;;;31.10;9.38;;;9.90;99.90;;;;;;4228329;28;20143;-80
2021/12/25 05:32:31;;;;;;;24.85;9.70;;;9.90;99.90;;;;;;4218041;28;20047;-80
2021/12/25 05:34:33;;;;;;;33.35;9.55;;;9.90;99.90;;;;;;4231085;28;20079;-79
2021/12/25 05:36:35;;;;;;;24.50;8.65;;;9.90;99.90;;;;;;4230775;28;20581;-78
2021/12/25 05:38:36;;;;;;;24.23;9.15;;;10.00;99.90;;;;;;4230123;28;20565;-76
2021/12/25 05:40:38;;;;;;;23.95;9.80;;;10.00;99.90;;;;;;4230229;28;20656;-79
2021/12/25 05:42:40;;;;;;;23.77;9.18;;;10.00;99.90;;;;;;4230596;28;20130;-79
2021/12/25 05:44:43;;;;;;;30.27;9.07;;;9.90;99.90;;;;;;4230738;28;20051;-79
2021/12/25 05:46:45;;;;;;;18.75;8.45;;;10.00;99.90;;;;;;4226182;28;20095;-79
2021/12/25 05:48:49;;;;;;;32.78;9.82;;;9.90;99.90;;;;;;4218863;28;20143;-79
2021/12/25 05:50:51;;;;;;;31.70;9.88;;;9.90;99.90;;;;;;4228566;28;20418;-79
2021/12/25 05:52:55;;;;;;;26.10;9.75;;;9.90;99.90;;;;;;4219787;28;20040;-79
2021/12/25 05:54:57;;;;;;;32.13;10.52;;;9.90;99.90;;;;;;4221259;28;20055;-78
2021/12/25 05:57:01;;;;;;;37.92;9.38;;;9.90;99.90;;;;;;4213667;28;20078;-79
2021/12/25 05:59:03;;;;;;;32.83;10.00;;;9.90;99.90;;;;;;4213717;28;20083;-79
2021/12/25 06:01:06;;;;;;;26.85;10.50;;;9.90;99.90;;;;;;4213392;28;20071;-78
2021/12/25 06:03:08;;;;;;;28.17;9.65;;;9.80;99.90;;;;;;4212382;28;20066;-79
2021/12/25 06:05:10;;;;;;;26.90;10.02;;;9.80;99.90;;;;;;4229827;28;20044;-78
2021/12/25 06:07:12;;;;;;;33.15;9.75;;;9.80;99.90;;;;;;4226896;28;20082;-78
2021/12/25 06:09:14;;;;;;;30.02;9.57;;;9.70;99.90;;;;;;4216287;28;20065;-77
2021/12/25 06:11:17;;;;;;;28.70;9.80;;;9.70;99.90;;;;;;4213467;28;20068;-80
2021/12/25 06:13:21;;;;;;;27.63;9.32;;;9.70;99.90;;;;;;4221774;28;20086;-78
2021/12/25 06:15:23;;;;;;;25.17;10.00;;;9.70;99.90;;;;;;4220177;28;20087;-78
2021/12/25 06:17:26;;;;;;;22.52;10.15;;;9.70;99.90;;;;;;4212941;28;20177;-78
2021/12/25 06:19:28;;;;;;;25.17;9.82;;;9.70;99.90;;;;;;4213737;28;20135;-77
2021/12/25 06:21:31;;;;;;;27.13;9.55;;;9.70;99.90;;;;;;4225195;28;20075;-78
2021/12/25 06:23:32;;;;;;;27.15;8.98;;;9.70;99.90;;;;;;4229694;28;20126;-79
2021/12/25 06:25:34;;;;;;;24.33;9.50;;;9.70;99.90;;;;;;4224013;28;20051;-78
2021/12/25 06:27:37;;;;;;;27.20;9.50;;;9.70;99.90;;;;;;4229706;28;20043;-78
2021/12/25 06:29:38;;;;;;;20.85;9.32;;;9.70;99.90;;;;;;4230189;28;20082;-78
2021/12/25 06:31:40;;;;;;;33.17;11.15;;;9.70;99.90;;;;;;4228138;28;20048;-79
2021/12/25 06:33:42;;;;;;;25.52;9.43;;;9.70;99.90;;;;;;4224155;28;20427;-79
2021/12/25 06:35:44;;;;;;;33.17;9.77;;;9.60;99.90;;;;;;4213187;28;20479;-77
2021/12/25 06:37:47;;;;;;;30.17;9.80;;;9.60;99.90;;;;;;4213144;28;20496;-79
2021/12/25 06:39:49;;;;;;;28.92;9.48;;;9.60;99.90;;;;;;4213258;28;20560;-79
2021/12/25 06:41:51;;;;;;;23.20;9.38;;;9.60;99.90;;;;;;4217146;28;20507;-79
2021/12/25 06:43:52;;;;;;;25.20;9.35;;;9.60;99.90;;;;;;4221685;28;20082;-78
2021/12/25 06:45:54;;;;;;;23.58;9.40;;;9.60;99.90;;;;;;4229423;28;20122;-79
2021/12/25 06:47:56;;;;;;;26.92;9.73;;;9.60;99.90;;;;;;4222458;28;20500;-80
2021/12/25 06:49:58;;;;;;;40.50;9.82;;;9.60;99.90;;;;;;4212640;28;20083;-78
2021/12/25 06:52:00;;;;;;;31.90;9.98;;;9.60;99.90;;;;;;4211780;28;20507;-79
2021/12/25 06:54:03;;;;;;;29.42;10.85;;;9.60;99.90;;;;;;4212196;28;20095;-79
2021/12/25 06:56:05;;;;;;;28.65;10.23;;;9.60;99.90;;;;;;4211318;28;20471;-79
2021/12/25 06:58:08;;;;;;;25.05;9.88;;;9.60;99.90;;;;;;4211951;28;20090;-77
2021/12/25 07:00:11;;;;;;;23.98;10.05;;;9.60;99.90;;;;;;4213633;28;20084;-79
2021/12/25 07:02:13;;;;;;;23.48;10.32;;;9.60;99.90;;;;;;4227533;28;20545;-79
2021/12/25 07:04:15;;;;;;;31.90;10.50;;;9.50;99.90;;;;;;4212525;28;20136;-78
2021/12/25 07:06:18;;;;;;;20.67;9.27;;;9.60;99.90;;;;;;4220365;28;20091;-78
2021/12/25 07:08:19;;;;;;;22.92;9.27;;;9.50;99.90;;;;;;4226223;28;20162;-79
2021/12/25 07:10:22;;;;;;;31.70;10.05;;;9.50;99.90;;;;;;4212510;28;20040;-78
2021/12/25 07:12:25;;;;;;;24.88;9.27;;;9.50;99.90;;;;;;4219511;28;20063;-79
2021/12/25 07:14:27;;;;;;;26.70;10.13;;;9.50;99.90;;;;;;4226624;28;20082;-81
2021/12/25 07:16:29;;;;;;;30.55;9.98;;;9.50;99.90;;;;;;4227345;28;20082;-79
2021/12/25 07:18:31;;;;;;;29.58;10.32;;;9.50;99.90;;;;;;4227425;28;20426;-79
2021/12/25 07:20:33;;;;;;;29.17;10.32;;;9.50;99.90;;;;;;4224942;28;20044;-78
2021/12/25 07:22:35;;;;;;;28.13;10.43;;;9.50;99.90;;;;;;4211682;28;20051;-78
2021/12/25 07:24:37;;;;;;;26.00;10.02;;;9.50;99.90;;;;;;4212468;28;20076;-79
2021/12/25 07:26:40;;;;;;;20.83;9.63;;;9.50;99.90;;;;;;4216950;28;20419;-79
2021/12/25 07:28:41;;;;;;;31.98;9.90;;;9.50;99.90;;;;;;4220211;28;20048;-78
2021/12/25 07:30:43;;;;;;;26.92;9.32;;;9.50;99.90;;;;;;4233089;27;20071;-79
2021/12/25 07:32:45;;;;;;;25.35;10.07;;;9.50;99.90;;;;;;4232509;27;20047;-79
2021/12/25 07:34:48;;;;;;;27.02;9.90;;;9.60;99.90;;;;;;4231753;28;20102;-79
2021/12/25 07:36:49;;;;;;;32.13;10.13;;;9.60;99.90;;;;;;4219709;28;20391;-79
2021/12/25 07:38:53;;;;;;;24.27;9.85;;;9.60;99.90;;;;;;4216321;28;20087;-79
2021/12/25 07:40:55;;;;;;;34.50;9.60;;;9.60;99.90;;;;;;4213180;28;20090;-79
2021/12/25 07:42:57;;;;;;;31.05;9.82;;;9.60;99.90;;;;;;4228082;28;20093;-79
2021/12/25 07:45:04;;;;;;;23.10;10.75;;;9.60;99.90;;;;;;4223555;28;20079;-79
2021/12/25 07:47:10;;;;;;;27.52;10.48;;;9.60;99.90;;;;;;4220018;28;20044;-80
2021/12/25 07:49:18;;;;;;;30.05;11.30;;;9.60;99.90;;;;;;4221530;28;20079;-79
2021/12/25 07:51:20;;;;;;;25.52;10.27;;;9.60;99.90;;;;;;4225190;28;20169;-79
2021/12/25 07:53:22;;;;;;;25.30;10.63;;;9.60;99.90;;;;;;4214968;28;20127;-80
2021/12/25 07:55:24;;;;;;;25.13;10.68;;;9.60;99.90;;;;;;4213408;28;20216;-79
2021/12/25 07:57:26;;;;;;;25.65;11.48;;;9.60;99.90;;;;;;4213594;28;20828;-79
2021/12/25 07:59:28;;;;;;;23.58;10.98;;;9.60;99.90;;;;;;4212042;28;20086;-79
2021/12/25 08:01:34;;;;;;;33.03;10.40;;;9.60;99.90;;;;;;4216941;28;20145;-79
2021/12/25 08:03:37;;;;;;;24.15;9.82;;;9.60;99.90;;;;;;4227874;28;20058;-79
2021/12/25 08:05:39;;;;;;;18.10;10.27;;;9.60;99.90;;;;;;4215799;27;20682;-79
2021/12/25 08:07:41;;;;;;;25.58;9.60;;;9.70;99.90;;;;;;4216750;28;20131;-79
2021/12/25 08:09:43;;;;;;;27.38;10.02;;;9.70;99.90;;;;;;4222674;28;20113;-81
2021/12/25 08:11:45;;;;;;;21.00;10.35;;;9.70;99.90;;;;;;4224668;28;20082;-80
2021/12/25 08:13:47;;;;;;;20.90;9.80;;;9.70;99.90;;;;;;4230282;28;20050;-79
2021/12/25 08:15:49;;;;;;;22.70;9.35;;;9.70;99.90;;;;;;4227803;28;20185;-79
2021/12/25 08:17:53;;;;;;;24.70;9.63;;;9.80;99.90;;;;;;4228811;28;20118;-79
2021/12/25 08:19:56;;;;;;;18.60;10.15;;;9.80;99.90;;;;;;4214359;28;20109;-79
2021/12/25 08:21:58;;;;;;;20.92;9.70;;;9.80;99.90;;;;;;4229911;28;20134;-79
2021/12/25 08:24:00;;;;;;;22.65;9.35;;;9.80;99.90;;;;;;4229852;28;20058;-78
2021/12/25 08:26:04;;;;;;;19.02;9.00;;;9.80;99.90;;;;;;4220337;28;20082;-79
2021/12/25 08:28:06;;;;;;;20.05;9.23;;;9.90;99.90;;;;;;4225894;28;20039;-78
2021/12/25 08:30:12;;;;;;;22.27;10.32;;;9.90;99.90;;;;;;4222180;27;20075;-79
2021/12/25 08:32:13;;;;;;;21.13;10.07;;;9.90;99.90;;;;;;4227852;28;20074;-80
2021/12/25 08:34:16;;;;;;;23.63;9.55;;;9.90;99.90;;;;;;4228909;28;20050;-78
2021/12/25 08:36:18;;;;;;;21.88;9.57;;;10.00;99.90;;;;;;4227880;28;20470;-79
2021/12/25 08:38:20;;;;;;;22.80;9.52;;;10.00;99.90;;;;;;4229473;28;20138;-77
2021/12/25 08:40:24;;;;;;;22.40;10.27;;;10.00;99.90;;;;;;4229718;28;20079;-78
2021/12/25 08:42:26;;;;;;;24.30;9.45;;;10.00;99.90;;;;;;4221505;28;20116;-80
2021/12/25 08:44:35;;;;;;;18.77;10.07;;;10.10;99.90;;;;;;4212929;28;20063;-80
2021/12/25 08:46:45;;;;;;;27.20;9.52;;;10.10;99.90;;;;;;4229459;28;20071;-80
2021/12/25 08:48:47;;;;;;;18.48;8.65;;;10.10;99.90;;;;;;4214422;28;20083;-79
2021/12/25 08:50:52;;;;;;;18.13;8.55;;;10.10;99.90;;;;;;4213950;28;20040;-81
2021/12/25 08:52:54;;;;;;;17.55;8.63;;;10.10;99.90;;;;;;4231030;28;20515;-79
2021/12/25 08:54:56;;;;;;;24.25;8.27;;;10.20;99.90;;;;;;4214817;28;20476;-79
2021/12/25 08:57:00;;;;;;;23.70;8.65;;;10.10;99.90;;;;;;4214619;28;20559;-78
2021/12/25 08:59:03;;;;;;;19.73;8.20;;;10.20;99.90;;;;;;4215481;28;20523;-80
2021/12/25 09:01:07;;;;;;;15.75;7.53;;;10.20;99.90;;;;;;4219732;28;20056;-79
2021/12/25 09:03:09;;;;;;;15.60;7.25;;;10.20;99.90;;;;;;4214287;28;20054;-78
2021/12/25 09:05:12;;;;;;;21.83;7.40;;;10.20;99.90;;;;;;4223511;28;20454;-79
2021/12/25 09:07:14;;;;;;;15.68;7.50;;;10.20;99.90;;;;;;4213712;28;20052;-80
2021/12/25 09:09:16;;;;;;;16.40;7.57;;;10.20;99.90;;;;;;4214730;28;20076;-79
2021/12/25 09:11:20;;;;;;;16.17;7.97;;;10.20;99.90;;;;;;4220876;28;20118;-78
2021/12/25 09:13:22;;;;;;;26.70;7.30;;;10.20;99.90;;;;;;4221718;28;20044;-77
2021/12/25 09:15:25;;;;;;;17.58;7.43;;;10.20;99.90;;;;;;4214224;28;20083;-79
2021/12/25 09:17:27;;;;;;;17.85;6.70;;;10.30;99.90;;;;;;4214577;28;20499;-80
2021/12/25 09:19:29;;;;;;;18.75;6.90;;;10.20;99.90;;;;;;4216343;27;20495;-79
2021/12/25 09:21:31;;;;;;;16.92;6.95;;;10.20;99.90;;;;;;4229364;28;20059;-79
2021/12/25 09:23:33;;;;;;;20.08;6.43;;;10.20;99.90;;;;;;4215244;28;20052;-80
2021/12/25 09:25:35;;;;;;;17.77;6.53;;;10.20;99.90;;;;;;4215518;28;20067;-79
2021/12/25 09:27:37;;;;;;;15.90;7.00;;;10.20;99.90;;;;;;4228766;28;20131;-80
2021/12/25 09:29:39;;;;;;;19.60;6.65;;;10.20;99.90;;;;;;4215861;28;20083;-78
2021/12/25 09:31:41;;;;;;;16.90;6.13;;;10.20;99.90;;;;;;4224352;28;20090;-78
2021/12/25 09:33:43;;;;;;;13.98;5.80;;;10.20;99.90;;;;;;4218576;28;20090;-78
2021/12/25 09:35:51;;;;;;;15.40;6.07;;;10.30;99.90;;;;;;4220573;28;20601;-78
2021/12/25 09:37:53;;;;;;;13.27;5.40;;;10.30;99.90;;;;;;4230457;28;20075;-78
2021/12/25 09:39:55;;;;;;;11.35;5.22;;;10.20;99.90;;;;;;4231811;28;20071;-80
2021/12/25 09:41:57;;;;;;;18.17;5.55;;;10.20;99.90;;;;;;4231121;28;20074;-79
2021/12/25 09:44:03;;;;;;;14.05;5.25;;;10.20;99.90;;;;;;4229409;28;20134;-78
2021/12/25 09:46:05;;;;;;;14.25;5.10;;;10.20;99.90;;;;;;4215857;28;20127;-79
2021/12/25 09:48:07;;;;;;;14.15;5.95;;;10.20;99.90;;;;;;4213988;28;20050;-79
2021/12/25 09:50:10;;;;;;;13.32;5.47;;;10.20;99.90;;;;;;4216416;28;20588;-78
2021/12/25 09:52:12;;;;;;;11.77;5.20;;;10.20;99.90;;;;;;4230820;28;20415;-80
2021/12/25 09:54:15;;;;;;;12.00;5.50;;;10.20;99.90;;;;;;4230867;28;20067;-79
2021/12/25 09:56:18;;;;;;;9.27;5.15;;;10.30;99.90;;;;;;4229633;28;20061;-79
2021/12/25 09:58:20;;;;;;;12.35;5.53;;;10.20;99.90;;;;;;4220618;28;20054;-79
2021/12/25 10:00:23;;;;;;;11.80;5.97;;;10.30;99.90;;;;;;4213631;28;20495;-79
2021/12/25 10:02:48;;;;;;;10.05;5.32;;;10.30;99.90;;;;;;4214176;28;20044;-78
2021/12/25 10:04:56;;;;;;;11.18;5.20;;;10.30;99.90;;;;;;4225973;28;20044;-77
2021/12/25 10:06:58;;;;;;;10.02;4.93;;;10.30;99.90;;;;;;4213166;28;20500;-79
2021/12/25 10:09:20;;;;;;;10.63;5.20;;;10.40;99.90;;;;;;4215151;28;20040;-77
2021/12/25 10:11:22;;;;;;;14.18;5.05;;;10.40;99.90;;;;;;4218812;28;20035;-80
2021/12/25 10:13:36;;;;;;;8.93;4.68;;;10.40;99.90;;;;;;4213009;28;20150;-78
2021/12/25 10:15:38;;;;;;;8.82;4.80;;;10.40;99.90;;;;;;4213915;28;20123;-80
2021/12/25 10:17:53;;;;;;;12.32;5.78;;;10.40;99.90;;;;;;4224617;28;20071;-78
2021/12/25 10:20:00;;;;;;;11.07;5.25;;;10.40;99.90;;;;;;4215119;28;20075;-78
2021/12/25 10:22:07;;;;;;;11.77;5.15;;;10.40;99.90;;;;;;4212943;28;20439;-79
2021/12/25 10:24:26;;;;;;;9.35;5.00;;;10.50;99.90;;;;;;4215596;28;20171;-78
2021/12/25 10:26:29;;;;;;;12.18;5.22;;;10.50;99.90;;;;;;4230463;28;20051;-78
2021/12/25 10:28:39;;;;;;;11.52;5.32;;;10.50;99.90;;;;;;4227674;28;20079;-79
2021/12/25 10:31:03;;;;;;;14.25;5.40;;;10.60;99.90;;;;;;4223069;28;20059;-79
2021/12/25 10:33:25;;;;;;;10.45;5.00;;;10.70;99.90;;;;;;4226022;28;20082;-80
2021/12/25 10:35:27;;;;;;;9.90;5.53;;;10.80;99.90;;;;;;4226460;28;20051;-79
2021/12/25 10:37:29;;;;;;;11.27;4.90;;;10.90;99.90;;;;;;4226031;28;20126;-79
2021/12/25 10:39:31;;;;;;;12.65;5.30;;;10.90;99.90;;;;;;4230018;28;20086;-79
2021/12/25 10:41:37;;;;;;;8.55;4.03;;;10.90;99.90;;;;;;4228075;28;20102;-79
2021/12/25 10:43:42;;;;;;;9.75;4.40;;;10.90;99.90;;;;;;4229670;28;20465;-79
2021/12/25 10:45:58;;;;;;;9.45;4.30;;;10.90;99.90;;;;;;4230134;28;20075;-78
2021/12/25 10:48:03;;;;;;;13.13;4.60;;;11.00;99.90;;;;;;4229666;28;20050;-78
2021/12/25 10:50:14;;;;;;;9.38;3.92;;;11.00;99.90;;;;;;4212284;28;20758;-78
2021/12/25 10:52:31;;;;;;;8.48;3.97;;;11.10;99.90;;;;;;4212777;28;20079;-80
2021/12/25 10:54:42;;;;;;;6.00;3.70;;;11.10;99.90;;;;;;4214092;28;20079;-78
2021/12/25 10:56:47;;;;;;;6.75;3.50;;;11.00;99.90;;;;;;4212880;28;20143;-78
2021/12/25 10:58:50;;;;;;;6.75;3.70;;;11.10;99.90;;;;;;4220604;28;20510;-78
2021/12/25 11:00:55;;;;;;;13.80;4.13;;;11.10;99.90;;;;;;4212620;28;20124;-79
2021/12/25 11:03:06;;;;;;;13.00;3.88;;;11.10;99.90;;;;;;4213017;28;20074;-79
2021/12/25 11:05:21;;;;;;;7.82;3.60;;;11.20;99.90;;;;;;4212782;28;20085;-79
2021/12/25 11:07:24;;;;;;;11.50;3.67;;;11.20;99.90;;;;;;4213557;28;20090;-79
2021/12/25 11:09:26;;;;;;;8.45;3.72;;;11.30;99.90;;;;;;4213780;28;20076;-80
2021/12/25 11:11:28;;;;;;;5.95;3.28;;;11.30;99.90;;;;;;4215088;28;20139;-79
2021/12/25 11:13:39;;;;;;;6.00;3.17;;;11.40;99.90;;;;;;4222075;28;20043;-79
2021/12/25 11:15:41;;;;;;;6.63;3.10;;;11.50;99.90;;;;;;4228294;28;20111;-78
2021/12/25 11:17:50;;;;;;;7.78;3.60;;;11.60;99.90;;;;;;4229725;28;20079;-78
2021/12/25 11:19:59;;;;;;;8.25;3.00;;;11.60;99.90;;;;;;4229642;28;20130;-79
2021/12/25 11:22:01;;;;;;;7.72;3.65;;;11.60;99.90;;;;;;4221499;28;20133;-79
2021/12/25 11:24:10;;;;;;;6.43;2.92;;;11.70;99.90;;;;;;4221113;28;20041;-78
2021/12/25 11:26:14;;;;;;;7.60;3.45;;;11.70;99.90;;;;;;4214516;28;20051;-79
2021/12/25 11:28:18;;;;;;;10.00;3.95;;;11.60;99.90;;;;;;4220850;28;20545;-79
2021/12/25 11:30:23;;;;;;;8.63;3.90;;;11.70;99.90;;;;;;4232999;28;20052;-77
2021/12/25 11:32:25;;;;;;;7.22;3.63;;;11.80;99.90;;;;;;4228258;28;20048;-77
2021/12/25 11:34:28;;;;;;;9.18;4.05;;;11.80;99.90;;;;;;4218901;28;20075;-79
2021/12/25 11:36:30;;;;;;;5.90;3.53;;;11.90;99.90;;;;;;4213339;28;20499;-79
2021/12/25 11:38:32;;;;;;;9.45;3.88;;;11.90;99.90;;;;;;4213869;28;20059;-80
2021/12/25 11:40:40;;;;;;;5.78;3.53;;;11.90;99.90;;;;;;4214449;28;20087;-79
2021/12/25 11:42:48;;;;;;;11.85;3.35;;;11.90;99.90;;;;;;4228701;28;20054;-79
2021/12/25 11:44:53;;;;;;;7.30;3.63;;;12.00;99.90;;;;;;4232816;28;20113;-77
2021/12/25 11:46:55;;;;;;;10.98;3.63;;;12.00;99.90;;;;;;4232997;28;20054;-78
2021/12/25 11:49:17;;;;;;;5.55;2.92;;;12.00;99.90;;;;;;4230740;28;20581;-79
2021/12/25 11:51:29;;;;;;;8.73;3.50;;;12.10;99.90;;;;;;4219040;28;20047;-79
2021/12/25 11:54:08;;;;;;;9.13;3.42;;;12.10;99.90;;;;;;4224485;28;20075;-78